createdAt,value
2017-05-25T00:00:23.991Z,0
2017-05-25T00:01:04.535Z,0
2017-05-25T00:01:45.095Z,0
2017-05-25T00:02:25.634Z,0
2017-05-25T00:03:06.179Z,0
2017-05-25T00:03:46.714Z,0
2017-05-25T00:04:27.238Z,0
2017-05-25T00:05:07.769Z,0
2017-05-25T00:05:48.302Z,0
2017-05-25T00:06:28.858Z,0
2017-05-25T00:07:09.398Z,0
2017-05-25T00:07:49.927Z,0
2017-05-25T00:08:30.489Z,0
2017-05-25T00:09:11.074Z,0
2017-05-25T00:09:51.614Z,0
2017-05-25T00:10:32.154Z,0
2017-05-25T00:11:12.700Z,0
2017-05-25T00:11:53.247Z,0
2017-05-25T00:12:33.771Z,0
2017-05-25T00:13:14.344Z,0
2017-05-25T00:13:54.968Z,0
2017-05-25T00:14:35.521Z,0
2017-05-25T00:15:16.031Z,0
2017-05-25T00:15:56.611Z,0
2017-05-25T00:16:37.100Z,0
2017-05-25T00:17:17.629Z,0
2017-05-25T00:17:58.154Z,0
2017-05-25T00:18:38.684Z,0
2017-05-25T00:19:19.220Z,0
2017-05-25T00:19:59.760Z,0
2017-05-25T00:20:40.280Z,0
2017-05-25T00:21:20.827Z,0
2017-05-25T00:22:01.356Z,0
2017-05-25T00:22:41.926Z,0
2017-05-25T00:23:22.481Z,0
2017-05-25T00:24:03.027Z,0
2017-05-25T00:24:43.560Z,0
2017-05-25T00:25:24.111Z,0
2017-05-25T00:26:04.642Z,0
2017-05-25T00:26:45.173Z,0
2017-05-25T00:27:25.719Z,0
2017-05-25T00:28:06.252Z,0
2017-05-25T00:28:46.806Z,0
2017-05-25T00:29:27.342Z,0
2017-05-25T00:30:07.886Z,0
2017-05-25T00:30:48.427Z,0
2017-05-25T00:31:28.954Z,0
2017-05-25T00:32:09.494Z,0
2017-05-25T00:32:50.032Z,0
2017-05-25T00:33:30.573Z,0
2017-05-25T00:34:11.132Z,0
2017-05-25T00:34:51.675Z,0
2017-05-25T00:35:32.213Z,0
2017-05-25T00:36:12.746Z,0
2017-05-25T00:36:53.271Z,0
2017-05-25T00:37:33.802Z,0
2017-05-25T00:38:14.340Z,0
2017-05-25T00:38:54.881Z,0
2017-05-25T00:39:35.426Z,0
2017-05-25T00:40:15.990Z,0
2017-05-25T00:40:56.522Z,0
2017-05-25T00:41:37.061Z,0
2017-05-25T00:42:17.599Z,0
2017-05-25T00:42:58.150Z,0
2017-05-25T00:43:38.661Z,0
2017-05-25T00:44:19.196Z,0
2017-05-25T00:44:59.733Z,0
2017-05-25T00:45:40.257Z,0
2017-05-25T00:46:20.806Z,0
2017-05-25T00:47:01.343Z,0
2017-05-25T00:47:41.868Z,0
2017-05-25T00:48:22.396Z,0
2017-05-25T00:49:02.942Z,0
2017-05-25T00:49:43.480Z,0
2017-05-25T00:50:24.017Z,0
2017-05-25T00:51:04.555Z,0
2017-05-25T00:51:45.099Z,0
2017-05-25T00:52:25.635Z,0
2017-05-25T00:53:06.185Z,0
2017-05-25T00:53:46.713Z,0
2017-05-25T00:54:27.242Z,0
2017-05-25T00:55:07.784Z,0
2017-05-25T00:55:48.313Z,0
2017-05-25T00:56:28.837Z,0
2017-05-25T00:57:09.379Z,0
2017-05-25T00:57:49.910Z,0
2017-05-25T00:58:30.447Z,0
2017-05-25T00:59:10.993Z,0
2017-05-25T00:59:51.549Z,0
2017-05-25T01:00:32.087Z,0
2017-05-25T01:01:12.627Z,0
2017-05-25T01:01:53.196Z,0
2017-05-25T01:02:33.741Z,0
2017-05-25T01:03:14.271Z,0
2017-05-25T01:03:54.801Z,0
2017-05-25T01:04:35.335Z,0
2017-05-25T01:05:15.864Z,0
2017-05-25T01:05:56.407Z,0
2017-05-25T01:06:36.945Z,0
2017-05-25T01:07:17.484Z,0
2017-05-25T01:07:58.021Z,0
2017-05-25T01:08:38.566Z,0
2017-05-25T01:09:19.122Z,0
2017-05-25T01:09:59.650Z,0
2017-05-25T01:10:40.181Z,0
2017-05-25T01:11:20.714Z,0
2017-05-25T01:12:01.251Z,0
2017-05-25T01:12:41.780Z,0
2017-05-25T01:13:22.323Z,0
2017-05-25T01:14:02.853Z,0
2017-05-25T01:14:43.443Z,0
2017-05-25T01:15:23.980Z,0
2017-05-25T01:16:04.525Z,0
2017-05-25T01:16:45.059Z,0
2017-05-25T01:17:25.585Z,0
2017-05-25T01:18:06.123Z,0
2017-05-25T01:18:46.665Z,0
2017-05-25T01:19:27.207Z,0
2017-05-25T01:20:07.737Z,0
2017-05-25T01:20:48.298Z,0
2017-05-25T01:21:28.849Z,0
2017-05-25T01:22:09.398Z,0
2017-05-25T01:22:49.931Z,0
2017-05-25T01:23:30.463Z,0
2017-05-25T01:24:11.003Z,0
2017-05-25T01:24:51.550Z,0
2017-05-25T01:25:32.086Z,0
2017-05-25T01:26:12.629Z,0
2017-05-25T01:26:53.172Z,0
2017-05-25T01:27:33.727Z,0
2017-05-25T01:28:14.266Z,0
2017-05-25T01:28:54.807Z,0
2017-05-25T01:29:35.362Z,0
2017-05-25T01:30:15.896Z,0
2017-05-25T01:30:56.435Z,0
2017-05-25T01:31:36.989Z,0
2017-05-25T01:32:17.527Z,0
2017-05-25T01:32:58.082Z,0
2017-05-25T01:33:38.638Z,0
2017-05-25T01:34:19.182Z,0
2017-05-25T01:34:59.749Z,0
2017-05-25T01:35:40.282Z,0
2017-05-25T01:36:20.807Z,0
2017-05-25T01:37:01.338Z,0
2017-05-25T01:37:41.866Z,0
2017-05-25T01:38:22.417Z,0
2017-05-25T01:39:02.962Z,0
2017-05-25T01:39:43.497Z,0
2017-05-25T01:40:24.044Z,0
2017-05-25T01:41:04.590Z,0
2017-05-25T01:41:45.134Z,0
2017-05-25T01:42:25.706Z,0
2017-05-25T01:43:06.239Z,0
2017-05-25T01:43:46.790Z,0
2017-05-25T01:44:27.316Z,0
2017-05-25T01:45:07.859Z,0
2017-05-25T01:45:48.395Z,0
2017-05-25T01:46:28.939Z,0
2017-05-25T01:47:09.468Z,0
2017-05-25T01:47:50.016Z,0
2017-05-25T01:48:30.551Z,0
2017-05-25T01:49:11.094Z,0
2017-05-25T01:49:51.618Z,0
2017-05-25T01:50:32.169Z,0
2017-05-25T01:51:12.703Z,0
2017-05-25T01:51:53.237Z,0
2017-05-25T01:52:33.771Z,0
2017-05-25T01:53:14.342Z,0
2017-05-25T01:53:54.881Z,0
2017-05-25T01:54:35.423Z,0
2017-05-25T01:55:15.972Z,0
2017-05-25T01:55:56.510Z,0
2017-05-25T01:56:37.063Z,0
2017-05-25T01:57:17.575Z,0
2017-05-25T01:57:58.112Z,0
2017-05-25T01:58:38.655Z,0
2017-05-25T01:59:19.186Z,0
2017-05-25T01:59:59.745Z,0
2017-05-25T02:00:40.277Z,0
2017-05-25T02:01:20.824Z,0
2017-05-25T02:02:01.352Z,0
2017-05-25T02:02:41.927Z,0
2017-05-25T02:03:22.431Z,0
2017-05-25T02:04:02.970Z,0
2017-05-25T02:04:43.502Z,0
2017-05-25T02:05:24.030Z,0
2017-05-25T02:06:04.575Z,0
2017-05-25T02:06:45.106Z,0
2017-05-25T02:07:25.648Z,0
2017-05-25T02:08:06.227Z,0
2017-05-25T02:08:46.715Z,0
2017-05-25T02:09:27.260Z,0
2017-05-25T02:10:07.787Z,0
2017-05-25T02:10:48.309Z,0
2017-05-25T02:11:28.846Z,0
2017-05-25T02:12:09.373Z,0
2017-05-25T02:12:49.932Z,0
2017-05-25T02:13:30.471Z,0
2017-05-25T02:14:11.003Z,0
2017-05-25T02:14:51.570Z,0
2017-05-25T02:15:32.098Z,0
2017-05-25T02:16:12.662Z,0
2017-05-25T02:16:53.221Z,0
2017-05-25T02:17:33.759Z,0
2017-05-25T02:18:14.296Z,0
2017-05-25T02:18:54.839Z,0
2017-05-25T02:19:35.372Z,0
2017-05-25T02:20:15.899Z,0
2017-05-25T02:20:56.434Z,0
2017-05-25T02:21:36.975Z,0
2017-05-25T02:22:17.512Z,0
2017-05-25T02:22:58.045Z,0
2017-05-25T02:23:38.585Z,0
2017-05-25T02:24:19.112Z,0
2017-05-25T02:24:59.641Z,0
2017-05-25T02:25:40.182Z,0
2017-05-25T02:26:20.720Z,0
2017-05-25T02:27:01.269Z,0
2017-05-25T02:27:41.798Z,0
2017-05-25T02:28:22.327Z,0
2017-05-25T02:29:02.864Z,0
2017-05-25T02:29:43.392Z,0
2017-05-25T02:30:23.933Z,0
2017-05-25T02:31:04.474Z,0
2017-05-25T02:31:45.010Z,0
2017-05-25T02:32:25.555Z,0
2017-05-25T02:33:06.094Z,0
2017-05-25T02:33:46.632Z,0
2017-05-25T02:34:27.211Z,0
2017-05-25T02:35:07.777Z,0
2017-05-25T02:35:48.339Z,0
2017-05-25T02:36:28.875Z,0
2017-05-25T02:37:09.435Z,0
2017-05-25T02:37:49.966Z,0
2017-05-25T02:38:30.532Z,0
2017-05-25T02:39:11.062Z,0
2017-05-25T02:39:51.609Z,0
2017-05-25T02:40:32.148Z,0
2017-05-25T02:41:12.677Z,0
2017-05-25T02:41:53.213Z,0
2017-05-25T02:42:33.752Z,0
2017-05-25T02:43:14.281Z,0
2017-05-25T02:43:54.835Z,0
2017-05-25T02:44:35.387Z,0
2017-05-25T02:45:15.921Z,0
2017-05-25T02:45:56.472Z,0
2017-05-25T02:46:37.017Z,0
2017-05-25T02:47:17.555Z,0
2017-05-25T02:47:58.107Z,0
2017-05-25T02:48:38.659Z,0
2017-05-25T02:49:19.197Z,0
2017-05-25T02:49:59.727Z,0
2017-05-25T02:50:40.266Z,0
2017-05-25T02:51:20.805Z,0
2017-05-25T02:52:01.348Z,0
2017-05-25T02:52:41.893Z,0
2017-05-25T02:53:22.427Z,0
2017-05-25T02:54:02.969Z,0
2017-05-25T02:54:43.524Z,0
2017-05-25T02:55:24.066Z,0
2017-05-25T02:56:04.584Z,0
2017-05-25T02:56:45.140Z,0
2017-05-25T02:57:25.676Z,0
2017-05-25T02:58:06.211Z,0
2017-05-25T02:58:46.749Z,0
2017-05-25T02:59:27.304Z,0
2017-05-25T03:00:07.836Z,0
2017-05-25T03:00:48.383Z,0
2017-05-25T03:01:28.912Z,0
2017-05-25T03:02:09.436Z,0
2017-05-25T03:02:49.975Z,0
2017-05-25T03:03:30.533Z,0
2017-05-25T03:04:11.075Z,0
2017-05-25T03:04:53.353Z,0
2017-05-25T03:05:33.881Z,0
2017-05-25T03:06:14.404Z,0
2017-05-25T03:06:54.932Z,0
2017-05-25T03:07:35.466Z,0
2017-05-25T03:08:16.027Z,0
2017-05-25T03:08:56.566Z,0
2017-05-25T03:09:37.122Z,0
2017-05-25T03:10:17.662Z,0
2017-05-25T03:10:58.203Z,0
2017-05-25T03:11:38.755Z,0
2017-05-25T03:12:19.317Z,0
2017-05-25T03:12:59.881Z,0
2017-05-25T03:13:40.420Z,0
2017-05-25T03:14:20.961Z,0
2017-05-25T03:15:01.489Z,0
2017-05-25T03:15:42.032Z,0
2017-05-25T03:16:22.565Z,0
2017-05-25T03:17:03.128Z,0
2017-05-25T03:17:43.639Z,0
2017-05-25T03:18:24.218Z,0
2017-05-25T03:19:04.766Z,0
2017-05-25T03:19:45.300Z,0
2017-05-25T03:20:25.831Z,0
2017-05-25T03:21:06.383Z,0
2017-05-25T03:21:46.972Z,0
2017-05-25T03:22:27.524Z,0
2017-05-25T03:23:08.072Z,0
2017-05-25T03:23:48.597Z,0
2017-05-25T03:24:29.133Z,0
2017-05-25T03:25:09.656Z,0
2017-05-25T03:25:50.201Z,0
2017-05-25T03:26:30.729Z,0
2017-05-25T03:27:11.270Z,0
2017-05-25T03:27:51.794Z,0
2017-05-25T03:28:32.335Z,5
2017-05-25T03:29:12.863Z,5
2017-05-25T03:29:53.430Z,5
2017-05-25T03:30:33.991Z,5
2017-05-25T03:31:14.525Z,5
2017-05-25T03:31:55.087Z,5
2017-05-25T03:32:35.629Z,5
2017-05-25T03:33:16.158Z,5
2017-05-25T03:33:56.691Z,5
2017-05-25T03:34:37.221Z,5
2017-05-25T03:35:17.783Z,5
2017-05-25T03:35:58.314Z,5
2017-05-25T03:36:38.848Z,5
2017-05-25T03:37:19.394Z,5
2017-05-25T03:37:59.933Z,10
2017-05-25T03:38:40.465Z,10
2017-05-25T03:39:21.013Z,10
2017-05-25T03:40:01.549Z,10
2017-05-25T03:40:42.091Z,10
2017-05-25T03:41:22.616Z,10
2017-05-25T03:42:03.157Z,10
2017-05-25T03:42:43.698Z,10
2017-05-25T03:43:24.227Z,10
2017-05-25T03:44:04.790Z,10
2017-05-25T03:44:45.334Z,10
2017-05-25T03:45:25.873Z,10
2017-05-25T03:46:06.463Z,15
2017-05-25T03:46:47.002Z,15
2017-05-25T03:47:29.201Z,15
2017-05-25T03:48:09.736Z,15
2017-05-25T03:48:50.263Z,15
2017-05-25T03:49:30.802Z,15
2017-05-25T03:50:11.318Z,15
2017-05-25T03:50:51.870Z,15
2017-05-25T03:51:32.403Z,15
2017-05-25T03:52:12.944Z,20
2017-05-25T03:52:53.483Z,20
2017-05-25T03:53:34.038Z,20
2017-05-25T03:54:14.578Z,20
2017-05-25T03:54:55.120Z,20
2017-05-25T03:55:35.666Z,20
2017-05-25T03:56:16.194Z,20
2017-05-25T03:56:56.739Z,20
2017-05-25T03:57:37.250Z,20
2017-05-25T03:58:17.792Z,20
2017-05-25T03:58:58.324Z,25
2017-05-25T03:59:38.850Z,25
2017-05-25T04:00:19.409Z,25
2017-05-25T04:00:59.924Z,25
2017-05-25T04:01:40.461Z,25
2017-05-25T04:02:21.003Z,25
2017-05-25T04:03:01.541Z,25
2017-05-25T04:03:42.075Z,25
2017-05-25T04:04:22.614Z,25
2017-05-25T04:05:03.158Z,25
2017-05-25T04:05:43.673Z,30
2017-05-25T04:06:24.211Z,30
2017-05-25T04:07:04.751Z,30
2017-05-25T04:07:45.279Z,30
2017-05-25T04:08:25.814Z,30
2017-05-25T04:09:06.376Z,30
2017-05-25T04:09:46.908Z,30
2017-05-25T04:10:27.454Z,35
2017-05-25T04:11:08.019Z,35
2017-05-25T04:11:48.561Z,35
2017-05-25T04:12:29.107Z,35
2017-05-25T04:13:09.648Z,35
2017-05-25T04:13:50.188Z,35
2017-05-25T04:14:30.720Z,35
2017-05-25T04:15:11.258Z,40
2017-05-25T04:15:51.787Z,40
2017-05-25T04:16:32.313Z,40
2017-05-25T04:17:12.860Z,40
2017-05-25T04:17:53.421Z,40
2017-05-25T04:18:33.941Z,40
2017-05-25T04:19:14.478Z,40
2017-05-25T04:19:55.024Z,45
2017-05-25T04:20:35.562Z,45
2017-05-25T04:21:16.092Z,45
2017-05-25T04:21:56.637Z,45
2017-05-25T04:22:37.185Z,45
2017-05-25T04:23:17.702Z,50
2017-05-25T04:23:58.283Z,50
2017-05-25T04:24:38.802Z,50
2017-05-25T04:25:19.339Z,50
2017-05-25T04:25:59.876Z,55
2017-05-25T04:26:40.417Z,55
2017-05-25T04:27:20.970Z,55
2017-05-25T04:28:01.497Z,55
2017-05-25T04:28:42.036Z,60
2017-05-25T04:29:22.590Z,60
2017-05-25T04:30:03.130Z,65
2017-05-25T04:30:43.676Z,65
2017-05-25T04:31:24.226Z,65
2017-05-25T04:32:04.757Z,65
2017-05-25T04:32:45.286Z,70
2017-05-25T04:33:25.826Z,70
2017-05-25T04:34:06.353Z,70
2017-05-25T04:34:46.880Z,70
2017-05-25T04:35:27.445Z,70
2017-05-25T04:36:07.979Z,75
2017-05-25T04:36:48.532Z,75
2017-05-25T04:37:29.059Z,75
2017-05-25T04:38:09.594Z,80
2017-05-25T04:38:50.152Z,80
2017-05-25T04:39:30.696Z,80
2017-05-25T04:40:11.238Z,80
2017-05-25T04:40:51.782Z,85
2017-05-25T04:41:32.319Z,85
2017-05-25T04:42:12.856Z,85
2017-05-25T04:42:53.399Z,90
2017-05-25T04:43:33.936Z,90
2017-05-25T04:44:14.468Z,90
2017-05-25T04:44:55.006Z,90
2017-05-25T04:45:35.549Z,90
2017-05-25T04:46:16.133Z,90
2017-05-25T04:46:56.613Z,90
2017-05-25T04:47:37.142Z,90
2017-05-25T04:48:17.674Z,90
2017-05-25T04:48:58.211Z,90
2017-05-25T04:49:38.741Z,90
2017-05-25T04:50:19.269Z,90
2017-05-25T04:50:59.810Z,90
2017-05-25T04:51:40.357Z,95
2017-05-25T04:52:20.894Z,95
2017-05-25T04:53:01.451Z,95
2017-05-25T04:53:41.995Z,95
2017-05-25T04:54:22.523Z,95
2017-05-25T04:55:03.059Z,95
2017-05-25T04:55:43.617Z,95
2017-05-25T04:56:24.154Z,105
2017-05-25T04:57:04.697Z,105
2017-05-25T04:57:45.226Z,110
2017-05-25T04:58:25.750Z,110
2017-05-25T04:59:06.281Z,110
2017-05-25T04:59:46.829Z,115
2017-05-25T05:00:27.362Z,115
2017-05-25T05:01:07.913Z,110
2017-05-25T05:01:48.427Z,115
2017-05-25T05:02:28.977Z,115
2017-05-25T05:03:09.525Z,115
2017-05-25T05:03:50.072Z,115
2017-05-25T05:04:30.613Z,115
2017-05-25T05:05:11.155Z,115
2017-05-25T05:05:51.687Z,115
2017-05-25T05:06:32.223Z,115
2017-05-25T05:07:12.769Z,115
2017-05-25T05:07:53.307Z,115
2017-05-25T05:08:33.844Z,115
2017-05-25T05:09:14.380Z,115
2017-05-25T05:09:54.916Z,115
2017-05-25T05:10:35.435Z,115
2017-05-25T05:11:15.975Z,115
2017-05-25T05:11:56.501Z,115
2017-05-25T05:12:37.070Z,115
2017-05-25T05:13:17.598Z,110
2017-05-25T05:13:58.172Z,110
2017-05-25T05:14:38.711Z,115
2017-05-25T05:15:19.242Z,115
2017-05-25T05:15:59.787Z,115
2017-05-25T05:16:40.337Z,115
2017-05-25T05:17:20.867Z,115
2017-05-25T05:18:01.394Z,115
2017-05-25T05:18:41.936Z,115
2017-05-25T05:19:22.467Z,120
2017-05-25T05:20:03.020Z,120
2017-05-25T05:20:43.548Z,125
2017-05-25T05:21:24.093Z,125
2017-05-25T05:22:04.620Z,125
2017-05-25T05:22:45.196Z,120
2017-05-25T05:23:25.721Z,125
2017-05-25T05:24:06.244Z,125
2017-05-25T05:24:46.785Z,125
2017-05-25T05:25:27.311Z,125
2017-05-25T05:26:07.856Z,125
2017-05-25T05:26:48.396Z,125
2017-05-25T05:27:28.938Z,135
2017-05-25T05:28:09.488Z,140
2017-05-25T05:28:50.028Z,145
2017-05-25T05:29:30.568Z,150
2017-05-25T05:30:11.105Z,155
2017-05-25T05:30:51.641Z,160
2017-05-25T05:31:32.186Z,165
2017-05-25T05:32:12.723Z,175
2017-05-25T05:32:53.275Z,180
2017-05-25T05:33:33.865Z,165
2017-05-25T05:34:14.334Z,155
2017-05-25T05:34:54.865Z,145
2017-05-25T05:35:35.395Z,140
2017-05-25T05:36:15.938Z,145
2017-05-25T05:36:56.460Z,145
2017-05-25T05:37:36.986Z,140
2017-05-25T05:38:17.531Z,135
2017-05-25T05:38:58.054Z,140
2017-05-25T05:39:38.593Z,145
2017-05-25T05:40:19.134Z,150
2017-05-25T05:40:59.665Z,145
2017-05-25T05:41:40.213Z,145
2017-05-25T05:42:20.757Z,145
2017-05-25T05:43:01.300Z,145
2017-05-25T05:43:41.852Z,145
2017-05-25T05:44:22.393Z,140
2017-05-25T05:45:02.921Z,140
2017-05-25T05:45:43.451Z,145
2017-05-25T05:46:23.990Z,150
2017-05-25T05:47:04.536Z,150
2017-05-25T05:47:45.110Z,150
2017-05-25T05:48:25.652Z,150
2017-05-25T05:49:06.190Z,150
2017-05-25T05:49:46.723Z,150
2017-05-25T05:50:27.268Z,150
2017-05-25T05:51:07.797Z,150
2017-05-25T05:51:48.347Z,155
2017-05-25T05:52:28.877Z,150
2017-05-25T05:53:09.412Z,150
2017-05-25T05:53:49.970Z,150
2017-05-25T05:54:30.508Z,150
2017-05-25T05:55:11.281Z,145
2017-05-25T05:55:51.908Z,145
2017-05-25T05:56:32.434Z,145
2017-05-25T05:57:12.973Z,145
2017-05-25T05:57:53.490Z,135
2017-05-25T05:58:34.027Z,155
2017-05-25T05:59:14.568Z,160
2017-05-25T05:59:55.117Z,160
2017-05-25T06:00:35.662Z,165
2017-05-25T06:01:16.205Z,165
2017-05-25T06:01:56.765Z,170
2017-05-25T06:02:37.294Z,160
2017-05-25T06:03:17.843Z,175
2017-05-25T06:03:58.372Z,170
2017-05-25T06:04:38.900Z,175
2017-05-25T06:05:19.430Z,180
2017-05-25T06:05:59.972Z,185
2017-05-25T06:06:40.493Z,205
2017-05-25T06:07:21.030Z,210
2017-05-25T06:08:01.586Z,210
2017-05-25T06:08:42.111Z,205
2017-05-25T06:09:22.649Z,200
2017-05-25T06:10:03.190Z,190
2017-05-25T06:10:43.728Z,185
2017-05-25T06:11:24.257Z,210
2017-05-25T06:12:04.804Z,220
2017-05-25T06:12:45.351Z,215
2017-05-25T06:13:25.888Z,210
2017-05-25T06:14:06.426Z,210
2017-05-25T06:14:46.957Z,200
2017-05-25T06:15:27.490Z,175
2017-05-25T06:16:08.008Z,170
2017-05-25T06:16:48.566Z,170
2017-05-25T06:17:29.113Z,165
2017-05-25T06:18:09.669Z,170
2017-05-25T06:18:50.206Z,190
2017-05-25T06:19:30.753Z,195
2017-05-25T06:20:11.336Z,205
2017-05-25T06:20:51.841Z,215
2017-05-25T06:21:32.348Z,210
2017-05-25T06:22:12.888Z,210
2017-05-25T06:22:53.416Z,200
2017-05-25T06:23:33.982Z,210
2017-05-25T06:24:14.525Z,200
2017-05-25T06:24:55.126Z,205
2017-05-25T06:25:35.607Z,210
2017-05-25T06:26:16.149Z,215
2017-05-25T06:26:56.687Z,220
2017-05-25T06:27:37.262Z,240
2017-05-25T06:28:17.808Z,245
2017-05-25T06:28:58.318Z,230
2017-05-25T06:29:38.847Z,245
2017-05-25T06:30:19.383Z,275
2017-05-25T06:30:59.918Z,265
2017-05-25T06:31:40.462Z,265
2017-05-25T06:32:21.006Z,260
2017-05-25T06:33:01.556Z,260
2017-05-25T06:33:42.097Z,255
2017-05-25T06:34:22.622Z,265
2017-05-25T06:35:03.158Z,275
2017-05-25T06:35:43.701Z,290
2017-05-25T06:36:24.244Z,275
2017-05-25T06:37:04.782Z,300
2017-05-25T06:37:45.319Z,340
2017-05-25T06:38:25.857Z,335
2017-05-25T06:39:06.391Z,320
2017-05-25T06:39:46.927Z,305
2017-05-25T06:40:27.467Z,290
2017-05-25T06:41:08.005Z,275
2017-05-25T06:41:48.546Z,280
2017-05-25T06:42:29.092Z,285
2017-05-25T06:43:09.648Z,285
2017-05-25T06:43:50.190Z,255
2017-05-25T06:44:30.726Z,250
2017-05-25T06:45:11.254Z,265
2017-05-25T06:45:51.798Z,295
2017-05-25T06:46:32.333Z,300
2017-05-25T06:47:12.880Z,325
2017-05-25T06:47:53.419Z,385
2017-05-25T06:48:33.990Z,385
2017-05-25T06:49:14.524Z,370
2017-05-25T06:49:55.068Z,365
2017-05-25T06:50:35.607Z,355
2017-05-25T06:51:16.166Z,355
2017-05-25T06:51:56.712Z,335
2017-05-25T06:52:37.254Z,345
2017-05-25T06:53:17.790Z,345
2017-05-25T06:53:58.336Z,365
2017-05-25T06:54:38.875Z,305
2017-05-25T06:55:19.435Z,315
2017-05-25T06:55:59.982Z,355
2017-05-25T06:56:40.532Z,325
2017-05-25T06:57:21.085Z,340
2017-05-25T06:58:01.620Z,305
2017-05-25T06:58:42.155Z,290
2017-05-25T06:59:22.692Z,315
2017-05-25T07:00:03.233Z,285
2017-05-25T07:00:43.794Z,250
2017-05-25T07:01:24.334Z,255
2017-05-25T07:02:04.882Z,250
2017-05-25T07:02:45.428Z,260
2017-05-25T07:03:25.971Z,290
2017-05-25T07:04:06.501Z,275
2017-05-25T07:04:47.054Z,280
2017-05-25T07:05:27.602Z,310
2017-05-25T07:06:08.126Z,270
2017-05-25T07:06:48.693Z,250
2017-05-25T07:07:29.245Z,290
2017-05-25T07:08:09.804Z,295
2017-05-25T07:08:50.343Z,305
2017-05-25T07:09:30.882Z,305
2017-05-25T07:10:11.462Z,300
2017-05-25T07:10:52.004Z,300
2017-05-25T07:11:32.552Z,295
2017-05-25T07:12:13.083Z,290
2017-05-25T07:12:53.617Z,320
2017-05-25T07:13:34.156Z,325
2017-05-25T07:14:14.701Z,370
2017-05-25T07:14:55.243Z,360
2017-05-25T07:15:35.788Z,375
2017-05-25T07:16:16.317Z,365
2017-05-25T07:16:56.878Z,390
2017-05-25T07:17:37.434Z,400
2017-05-25T07:18:18.003Z,405
2017-05-25T07:18:58.559Z,430
2017-05-25T07:19:39.102Z,445
2017-05-25T07:20:19.633Z,480
2017-05-25T07:21:00.203Z,465
2017-05-25T07:21:40.745Z,450
2017-05-25T07:22:21.287Z,420
2017-05-25T07:23:01.824Z,400
2017-05-25T07:23:42.373Z,345
2017-05-25T07:24:22.923Z,305
2017-05-25T07:25:03.472Z,315
2017-05-25T07:25:44.024Z,355
2017-05-25T07:26:24.573Z,405
2017-05-25T07:27:05.121Z,375
2017-05-25T07:27:45.666Z,335
2017-05-25T07:28:26.187Z,305
2017-05-25T07:29:06.716Z,295
2017-05-25T07:29:47.253Z,295
2017-05-25T07:30:27.811Z,295
2017-05-25T07:31:08.352Z,320
2017-05-25T07:31:48.892Z,300
2017-05-25T07:32:29.437Z,620
2017-05-25T07:33:09.965Z,365
2017-05-25T07:33:50.510Z,1485
2017-05-25T07:34:31.051Z,595
2017-05-25T07:35:11.565Z,1325
2017-05-25T07:35:52.119Z,670
2017-05-25T07:36:32.663Z,355
2017-05-25T07:37:13.201Z,365
2017-05-25T07:37:53.757Z,390
2017-05-25T07:38:34.292Z,1230
2017-05-25T07:39:14.861Z,495
2017-05-25T07:39:55.401Z,455
2017-05-25T07:40:35.955Z,365
2017-05-25T07:41:16.515Z,350
2017-05-25T07:41:57.058Z,320
2017-05-25T07:42:37.594Z,285
2017-05-25T07:43:18.137Z,270
2017-05-25T07:43:58.694Z,250
2017-05-25T07:44:39.239Z,270
2017-05-25T07:45:19.784Z,330
2017-05-25T07:46:00.312Z,350
2017-05-25T07:46:40.859Z,340
2017-05-25T07:47:21.394Z,295
2017-05-25T07:48:01.931Z,285
2017-05-25T07:48:42.475Z,290
2017-05-25T07:49:23.002Z,460
2017-05-25T07:50:03.546Z,485
2017-05-25T07:50:44.093Z,515
2017-05-25T07:51:24.641Z,500
2017-05-25T07:52:05.194Z,410
2017-05-25T07:52:45.744Z,450
2017-05-25T07:53:26.291Z,465
2017-05-25T07:54:06.842Z,460
2017-05-25T07:54:47.382Z,430
2017-05-25T07:55:27.912Z,450
2017-05-25T07:56:08.444Z,435
2017-05-25T07:56:48.994Z,475
2017-05-25T07:57:29.540Z,530
2017-05-25T07:58:10.060Z,550
2017-05-25T07:58:50.609Z,545
2017-05-25T07:59:31.135Z,595
2017-05-25T08:00:11.669Z,565
2017-05-25T08:00:52.216Z,600
2017-05-25T08:01:32.751Z,565
2017-05-25T08:02:13.297Z,475
2017-05-25T08:02:53.843Z,515
2017-05-25T08:03:34.389Z,525
2017-05-25T08:04:14.917Z,655
2017-05-25T08:04:55.477Z,830
2017-05-25T08:05:36.018Z,1040
2017-05-25T08:06:16.563Z,1185
2017-05-25T08:06:57.113Z,1710
2017-05-25T08:07:37.652Z,1760
2017-05-25T08:08:18.195Z,2085
2017-05-25T08:08:58.768Z,2395
2017-05-25T08:09:39.327Z,2395
2017-05-25T08:10:19.868Z,2375
2017-05-25T08:11:00.398Z,2665
2017-05-25T08:11:40.949Z,2685
2017-05-25T08:12:21.518Z,2430
2017-05-25T08:13:02.034Z,2065
2017-05-25T08:13:42.573Z,2300
2017-05-25T08:14:23.119Z,2455
2017-05-25T08:15:03.662Z,2485
2017-05-25T08:15:44.221Z,2510
2017-05-25T08:16:24.766Z,2490
2017-05-25T08:17:05.310Z,2430
2017-05-25T08:17:45.860Z,2595
2017-05-25T08:18:26.399Z,2445
2017-05-25T08:19:06.956Z,2680
2017-05-25T08:19:47.505Z,2740
2017-05-25T08:20:28.055Z,2750
2017-05-25T08:21:08.617Z,2790
2017-05-25T08:21:49.170Z,2735
2017-05-25T08:22:29.717Z,2750
2017-05-25T08:23:10.262Z,2785
2017-05-25T08:23:50.802Z,2635
2017-05-25T08:24:31.353Z,2535
2017-05-25T08:25:11.904Z,2575
2017-05-25T08:25:52.441Z,2595
2017-05-25T08:26:32.988Z,2545
2017-05-25T08:27:13.539Z,2635
2017-05-25T08:27:54.090Z,2665
2017-05-25T08:28:34.642Z,2620
2017-05-25T08:29:15.195Z,2635
2017-05-25T08:29:55.742Z,2590
2017-05-25T08:30:36.290Z,2525
2017-05-25T08:31:16.826Z,2300
2017-05-25T08:31:57.376Z,1150
2017-05-25T08:32:37.933Z,2380
2017-05-25T08:33:18.454Z,2535
2017-05-25T08:33:58.993Z,2720
2017-05-25T08:34:39.537Z,2690
2017-05-25T08:35:20.085Z,2920
2017-05-25T08:36:00.638Z,2935
2017-05-25T08:36:41.175Z,3040
2017-05-25T08:37:21.724Z,3070
2017-05-25T08:38:02.256Z,2885
2017-05-25T08:38:42.801Z,2830
2017-05-25T08:39:23.357Z,2765
2017-05-25T08:40:03.907Z,2515
2017-05-25T08:40:44.461Z,2795
2017-05-25T08:41:25.021Z,2635
2017-05-25T08:42:05.563Z,2500
2017-05-25T08:42:46.108Z,2780
2017-05-25T08:43:26.656Z,1780
2017-05-25T08:44:07.205Z,2865
2017-05-25T08:44:47.755Z,2925
2017-05-25T08:45:28.288Z,2735
2017-05-25T08:46:08.856Z,895
2017-05-25T08:46:49.402Z,1070
2017-05-25T08:47:29.960Z,500
2017-05-25T08:48:10.509Z,555
2017-05-25T08:48:51.059Z,855
2017-05-25T08:49:31.607Z,805
2017-05-25T08:50:12.144Z,1410
2017-05-25T08:50:52.702Z,1045
2017-05-25T08:51:33.234Z,2085
2017-05-25T08:52:13.766Z,1005
2017-05-25T08:52:54.319Z,2875
2017-05-25T08:53:34.865Z,3170
2017-05-25T08:54:15.421Z,3405
2017-05-25T08:54:55.971Z,3330
2017-05-25T08:55:36.502Z,3245
2017-05-25T08:56:17.039Z,3185
2017-05-25T08:56:57.578Z,2830
2017-05-25T08:57:38.128Z,2970
2017-05-25T08:58:18.654Z,2925
2017-05-25T08:58:59.201Z,2910
2017-05-25T08:59:39.741Z,2950
2017-05-25T09:00:20.293Z,2925
2017-05-25T09:01:00.815Z,2975
2017-05-25T09:01:41.360Z,3090
2017-05-25T09:02:21.906Z,3065
2017-05-25T09:03:02.456Z,3190
2017-05-25T09:03:43.013Z,3110
2017-05-25T09:04:23.559Z,3405
2017-05-25T09:05:04.103Z,3380
2017-05-25T09:05:44.648Z,3430
2017-05-25T09:06:25.196Z,3370
2017-05-25T09:07:05.740Z,3335
2017-05-25T09:07:46.285Z,3255
2017-05-25T09:08:26.829Z,3230
2017-05-25T09:09:07.371Z,3130
2017-05-25T09:09:47.900Z,3335
2017-05-25T09:10:28.436Z,3340
2017-05-25T09:11:08.981Z,3375
2017-05-25T09:11:49.525Z,3325
2017-05-25T09:12:30.079Z,3290
2017-05-25T09:13:10.626Z,3140
2017-05-25T09:13:51.178Z,3040
2017-05-25T09:14:31.702Z,3020
2017-05-25T09:15:12.267Z,2550
2017-05-25T09:15:52.811Z,3205
2017-05-25T09:16:33.349Z,2660
2017-05-25T09:17:13.910Z,1600
2017-05-25T09:17:54.453Z,1165
2017-05-25T09:18:35.017Z,865
2017-05-25T09:19:15.565Z,725
2017-05-25T09:19:56.105Z,710
2017-05-25T09:20:36.654Z,680
2017-05-25T09:21:17.214Z,640
2017-05-25T09:21:57.781Z,630
2017-05-25T09:22:38.330Z,620
2017-05-25T09:23:18.872Z,610
2017-05-25T09:23:59.411Z,615
2017-05-25T09:24:39.954Z,630
2017-05-25T09:25:20.484Z,695
2017-05-25T09:26:01.035Z,1300
2017-05-25T09:26:41.615Z,2265
2017-05-25T09:27:22.173Z,3220
2017-05-25T09:28:02.715Z,3490
2017-05-25T09:28:43.273Z,2670
2017-05-25T09:29:23.816Z,1625
2017-05-25T09:30:04.379Z,895
2017-05-25T09:30:44.942Z,645
2017-05-25T09:31:25.489Z,625
2017-05-25T09:32:06.032Z,615
2017-05-25T09:32:46.573Z,605
2017-05-25T09:33:27.128Z,590